sensor_id;sensor_type;location;lat;lon;timestamp;P1;durP1;ratioP1;P2;durP2;ratioP2
77148;SDS011;66122;47.130;16.844;2023-11-18T00:01:47;0.40;;;0.23;;
77148;SDS011;66122;47.130;16.844;2023-11-18T00:11:50;0.30;;;0.20;;
77148;SDS011;66122;47.130;16.844;2023-11-18T00:21:52;0.45;;;0.30;;
77148;SDS011;66122;47.130;16.844;2023-11-18T00:31:55;0.30;;;0.20;;
77148;SDS011;66122;47.130;16.844;2023-11-18T00:41:58;0.30;;;0.20;;
77148;SDS011;66122;47.130;16.844;2023-11-18T00:52:00;0.35;;;0.20;;
77148;SDS011;66122;47.130;16.844;2023-11-18T01:02:03;0.30;;;0.10;;
77148;SDS011;66122;47.130;16.844;2023-11-18T01:12:07;0.30;;;0.20;;
77148;SDS011;66122;47.130;16.844;2023-11-18T01:22:12;0.40;;;0.30;;
77148;SDS011;66122;47.130;16.844;2023-11-18T01:32:14;0.30;;;0.20;;
77148;SDS011;66122;47.130;16.844;2023-11-18T01:42:18;0.30;;;0.20;;
77148;SDS011;66122;47.130;16.844;2023-11-18T01:52:20;0.40;;;0.20;;
77148;SDS011;66122;47.130;16.844;2023-11-18T02:02:25;0.40;;;0.30;;
77148;SDS011;66122;47.130;16.844;2023-11-18T02:22:51;0.50;;;0.40;;
77148;SDS011;66122;47.130;16.844;2023-11-18T02:43:22;0.30;;;0.20;;
77148;SDS011;66122;47.130;16.844;2023-11-18T02:53:31;0.30;;;0.20;;
77148;SDS011;66122;47.130;16.844;2023-11-18T03:03:33;0.30;;;0.20;;
77148;SDS011;66122;47.130;16.844;2023-11-18T03:13:37;0.40;;;0.30;;
77148;SDS011;66122;47.130;16.844;2023-11-18T03:23:40;0.40;;;0.20;;
77148;SDS011;66122;47.130;16.844;2023-11-18T03:33:44;0.20;;;0.10;;
77148;SDS011;66122;47.130;16.844;2023-11-18T03:43:46;0.40;;;0.30;;
77148;SDS011;66122;47.130;16.844;2023-11-18T03:53:51;0.30;;;0.20;;
77148;SDS011;66122;47.130;16.844;2023-11-18T04:03:54;0.30;;;0.20;;
77148;SDS011;66122;47.130;16.844;2023-11-18T04:13:57;0.30;;;0.20;;
77148;SDS011;66122;47.130;16.844;2023-11-18T04:23:59;0.50;;;0.32;;
77148;SDS011;66122;47.130;16.844;2023-11-18T04:34:03;0.33;;;0.23;;
77148;SDS011;66122;47.130;16.844;2023-11-18T04:44:06;0.30;;;0.20;;
77148;SDS011;66122;47.130;16.844;2023-11-18T04:54:10;0.30;;;0.10;;
77148;SDS011;66122;47.130;16.844;2023-11-18T05:04:14;0.30;;;0.20;;
77148;SDS011;66122;47.130;16.844;2023-11-18T05:14:16;0.30;;;0.20;;
77148;SDS011;66122;47.130;16.844;2023-11-18T05:24:19;0.40;;;0.30;;
77148;SDS011;66122;47.130;16.844;2023-11-18T05:34:21;0.30;;;0.20;;
77148;SDS011;66122;47.130;16.844;2023-11-18T05:44:24;0.30;;;0.20;;
77148;SDS011;66122;47.130;16.844;2023-11-18T05:54:32;0.30;;;0.20;;
77148;SDS011;66122;47.130;16.844;2023-11-18T06:04:35;0.40;;;0.30;;
77148;SDS011;66122;47.130;16.844;2023-11-18T06:14:37;0.40;;;0.20;;
77148;SDS011;66122;47.130;16.844;2023-11-18T06:24:41;0.33;;;0.20;;
77148;SDS011;66122;47.130;16.844;2023-11-18T06:34:45;0.30;;;0.20;;
77148;SDS011;66122;47.130;16.844;2023-11-18T06:44:47;0.30;;;0.20;;
77148;SDS011;66122;47.130;16.844;2023-11-18T06:54:51;0.20;;;0.10;;
77148;SDS011;66122;47.130;16.844;2023-11-18T07:04:54;0.40;;;0.30;;
77148;SDS011;66122;47.130;16.844;2023-11-18T07:14:56;0.30;;;0.20;;
77148;SDS011;66122;47.130;16.844;2023-11-18T07:24:59;0.50;;;0.40;;
77148;SDS011;66122;47.130;16.844;2023-11-18T07:35:03;0.35;;;0.20;;
77148;SDS011;66122;47.130;16.844;2023-11-18T07:45:11;0.43;;;0.30;;
77148;SDS011;66122;47.130;16.844;2023-11-18T07:55:20;0.43;;;0.30;;
77148;SDS011;66122;47.130;16.844;2023-11-18T08:05:25;0.50;;;0.33;;
77148;SDS011;66122;47.130;16.844;2023-11-18T08:15:30;0.40;;;0.20;;
77148;SDS011;66122;47.130;16.844;2023-11-18T08:25:34;0.50;;;0.37;;
77148;SDS011;66122;47.130;16.844;2023-11-18T08:35:38;0.40;;;0.30;;
77148;SDS011;66122;47.130;16.844;2023-11-18T08:45:42;0.40;;;0.20;;
77148;SDS011;66122;47.130;16.844;2023-11-18T08:55:45;0.60;;;0.53;;
77148;SDS011;66122;47.130;16.844;2023-11-18T09:05:57;0.60;;;0.50;;
77148;SDS011;66122;47.130;16.844;2023-11-18T09:16:02;0.50;;;0.40;;
77148;SDS011;66122;47.130;16.844;2023-11-18T09:26:12;0.40;;;0.20;;
77148;SDS011;66122;47.130;16.844;2023-11-18T09:36:15;0.40;;;0.20;;
77148;SDS011;66122;47.130;16.844;2023-11-18T09:46:23;0.50;;;0.33;;
77148;SDS011;66122;47.130;16.844;2023-11-18T09:56:31;0.50;;;0.40;;
77148;SDS011;66122;47.130;16.844;2023-11-18T10:06:48;0.50;;;0.40;;
77148;SDS011;66122;47.130;16.844;2023-11-18T10:16:54;0.40;;;0.20;;
77148;SDS011;66122;47.130;16.844;2023-11-18T10:26:57;0.52;;;0.40;;
77148;SDS011;66122;47.130;16.844;2023-11-18T10:37:01;0.40;;;0.20;;
77148;SDS011;66122;47.130;16.844;2023-11-18T10:47:04;0.40;;;0.20;;
77148;SDS011;66122;47.130;16.844;2023-11-18T10:57:07;0.40;;;0.30;;
77148;SDS011;66122;47.130;16.844;2023-11-18T11:07:11;0.57;;;0.47;;
77148;SDS011;66122;47.130;16.844;2023-11-18T11:17:16;0.60;;;0.50;;
77148;SDS011;66122;47.130;16.844;2023-11-18T11:27:32;0.60;;;0.40;;
77148;SDS011;66122;47.130;16.844;2023-11-18T11:37:42;0.60;;;0.50;;
77148;SDS011;66122;47.130;16.844;2023-11-18T11:47:47;0.70;;;0.60;;
77148;SDS011;66122;47.130;16.844;2023-11-18T11:57:52;0.80;;;0.80;;
77148;SDS011;66122;47.130;16.844;2023-11-18T12:08:00;0.90;;;0.85;;
77148;SDS011;66122;47.130;16.844;2023-11-18T12:28:07;0.80;;;0.70;;
77148;SDS011;66122;47.130;16.844;2023-11-18T12:48:36;0.77;;;0.67;;
77148;SDS011;66122;47.130;16.844;2023-11-18T12:58:48;0.80;;;0.73;;
77148;SDS011;66122;47.130;16.844;2023-11-18T13:08:50;1.07;;;0.97;;
77148;SDS011;66122;47.130;16.844;2023-11-18T13:18:53;0.50;;;0.30;;
77148;SDS011;66122;47.130;16.844;2023-11-18T13:28:58;0.40;;;0.20;;
77148;SDS011;66122;47.130;16.844;2023-11-18T13:39:01;0.40;;;0.20;;
77148;SDS011;66122;47.130;16.844;2023-11-18T13:49:05;0.40;;;0.28;;
77148;SDS011;66122;47.130;16.844;2023-11-18T13:59:08;0.30;;;0.20;;
77148;SDS011;66122;47.130;16.844;2023-11-18T14:09:12;0.30;;;0.20;;
77148;SDS011;66122;47.130;16.844;2023-11-18T14:19:14;0.38;;;0.20;;
77148;SDS011;66122;47.130;16.844;2023-11-18T14:29:17;0.50;;;0.40;;
77148;SDS011;66122;47.130;16.844;2023-11-18T14:39:20;0.40;;;0.30;;
77148;SDS011;66122;47.130;16.844;2023-11-18T14:49:25;0.50;;;0.40;;
77148;SDS011;66122;47.130;16.844;2023-11-18T14:59:27;0.30;;;0.20;;
77148;SDS011;66122;47.130;16.844;2023-11-18T15:09:30;0.50;;;0.40;;
77148;SDS011;66122;47.130;16.844;2023-11-18T15:19:34;0.30;;;0.10;;
77148;SDS011;66122;47.130;16.844;2023-11-18T15:29:36;0.30;;;0.20;;
77148;SDS011;66122;47.130;16.844;2023-11-18T15:39:47;0.27;;;0.17;;
77148;SDS011;66122;47.130;16.844;2023-11-18T15:49:50;0.40;;;0.27;;
77148;SDS011;66122;47.130;16.844;2023-11-18T15:59:53;0.35;;;0.20;;
77148;SDS011;66122;47.130;16.844;2023-11-18T16:09:56;0.50;;;0.30;;
77148;SDS011;66122;47.130;16.844;2023-11-18T16:19:59;0.30;;;0.20;;
77148;SDS011;66122;47.130;16.844;2023-11-18T16:30:06;0.40;;;0.20;;
77148;SDS011;66122;47.130;16.844;2023-11-18T16:40:09;0.28;;;0.10;;
77148;SDS011;66122;47.130;16.844;2023-11-18T16:50:17;0.40;;;0.30;;
77148;SDS011;66122;47.130;16.844;2023-11-18T17:00:21;0.30;;;0.10;;
77148;SDS011;66122;47.130;16.844;2023-11-18T17:10:28;0.30;;;0.20;;
77148;SDS011;66122;47.130;16.844;2023-11-18T17:20:31;0.23;;;0.10;;
77148;SDS011;66122;47.130;16.844;2023-11-18T17:30:34;0.40;;;0.27;;
77148;SDS011;66122;47.130;16.844;2023-11-18T17:40:39;0.40;;;0.20;;
77148;SDS011;66122;47.130;16.844;2023-11-18T17:50:42;0.40;;;0.28;;
77148;SDS011;66122;47.130;16.844;2023-11-18T18:00:44;0.30;;;0.10;;
77148;SDS011;66122;47.130;16.844;2023-11-18T18:10:47;0.50;;;0.30;;
77148;SDS011;66122;47.130;16.844;2023-11-18T18:20:51;0.30;;;0.10;;
77148;SDS011;66122;47.130;16.844;2023-11-18T18:30:53;0.20;;;0.10;;
77148;SDS011;66122;47.130;16.844;2023-11-18T18:40:56;0.20;;;0.10;;
77148;SDS011;66122;47.130;16.844;2023-11-18T18:51:00;0.32;;;0.20;;
77148;SDS011;66122;47.130;16.844;2023-11-18T19:01:07;0.30;;;0.10;;
77148;SDS011;66122;47.130;16.844;2023-11-18T19:11:12;0.37;;;0.20;;
77148;SDS011;66122;47.130;16.844;2023-11-18T19:21:14;0.40;;;0.20;;
77148;SDS011;66122;47.130;16.844;2023-11-18T19:31:17;0.40;;;0.28;;
77148;SDS011;66122;47.130;16.844;2023-11-18T19:41:20;0.30;;;0.10;;
77148;SDS011;66122;47.130;16.844;2023-11-18T19:51:23;0.30;;;0.13;;
77148;SDS011;66122;47.130;16.844;2023-11-18T20:01:27;0.30;;;0.10;;
77148;SDS011;66122;47.130;16.844;2023-11-18T20:11:31;0.30;;;0.20;;
77148;SDS011;66122;47.130;16.844;2023-11-18T20:21:34;0.30;;;0.20;;
77148;SDS011;66122;47.130;16.844;2023-11-18T20:31:37;0.30;;;0.15;;
77148;SDS011;66122;47.130;16.844;2023-11-18T20:41:40;0.20;;;0.10;;
77148;SDS011;66122;47.130;16.844;2023-11-18T20:51:43;0.20;;;0.10;;
77148;SDS011;66122;47.130;16.844;2023-11-18T21:01:45;0.30;;;0.10;;
77148;SDS011;66122;47.130;16.844;2023-11-18T21:11:48;0.22;;;0.10;;
77148;SDS011;66122;47.130;16.844;2023-11-18T21:21:52;0.30;;;0.10;;
77148;SDS011;66122;47.130;16.844;2023-11-18T21:31:55;0.20;;;0.10;;
77148;SDS011;66122;47.130;16.844;2023-11-18T21:41:58;0.20;;;0.10;;
77148;SDS011;66122;47.130;16.844;2023-11-18T21:52:01;0.30;;;0.10;;
77148;SDS011;66122;47.130;16.844;2023-11-18T22:02:03;0.20;;;0.10;;
77148;SDS011;66122;47.130;16.844;2023-11-18T22:12:06;0.30;;;0.20;;
77148;SDS011;66122;47.130;16.844;2023-11-18T22:22:09;0.20;;;0.10;;
77148;SDS011;66122;47.130;16.844;2023-11-18T22:32:12;0.30;;;0.20;;
77148;SDS011;66122;47.130;16.844;2023-11-18T22:42:14;0.20;;;0.10;;
77148;SDS011;66122;47.130;16.844;2023-11-18T22:52:18;0.30;;;0.10;;
77148;SDS011;66122;47.130;16.844;2023-11-18T23:02:20;0.20;;;0.10;;
77148;SDS011;66122;47.130;16.844;2023-11-18T23:12:25;0.30;;;0.10;;
77148;SDS011;66122;47.130;16.844;2023-11-18T23:22:30;0.20;;;0.10;;
77148;SDS011;66122;47.130;16.844;2023-11-18T23:32:33;0.30;;;0.10;;
77148;SDS011;66122;47.130;16.844;2023-11-18T23:42:36;0.20;;;0.10;;
77148;SDS011;66122;47.130;16.844;2023-11-18T23:52:41;0.20;;;0.10;;
